createdAt,value
2019-03-01T00:01:04.830Z,98385.03
2019-03-01T00:03:33.886Z,98383.34
2019-03-01T00:06:23.566Z,98390.66
2019-03-01T00:09:01.219Z,98392.47
2019-03-01T00:11:52.318Z,98391.61
2019-03-01T00:14:55.678Z,98393.33
2019-03-01T00:17:48.750Z,98408.48
2019-03-01T00:20:23.137Z,98402.29
2019-03-01T00:23:03.908Z,98408.61
2019-03-01T00:25:44.337Z,98405.94
2019-03-01T00:28:21.970Z,98407.78
2019-03-01T00:30:53.653Z,98411.53
2019-03-01T00:33:58.903Z,98404.50
2019-03-01T00:36:50.061Z,98403.52
2019-03-01T00:39:39.959Z,98405.36
2019-03-01T00:42:17.332Z,98401.13
2019-03-01T00:44:48.345Z,98406.47
2019-03-01T00:47:17.200Z,98401.37
2019-03-01T00:49:45.585Z,98409.38
2019-03-01T00:52:14.072Z,98410.36
2019-03-01T00:54:42.465Z,98401.37
2019-03-01T00:57:10.895Z,98405.02
2019-03-01T00:59:39.284Z,98406.95
2019-03-01T01:02:07.704Z,98401.62
2019-03-01T01:04:36.088Z,98408.80
2019-03-01T01:07:04.524Z,98410.61
2019-03-01T01:09:32.919Z,98411.47
2019-03-01T01:12:01.337Z,98411.59
2019-03-01T01:14:29.719Z,98408.06
2019-03-01T01:16:58.148Z,98408.06
2019-03-01T01:19:26.534Z,98414.26
2019-03-01T01:21:55.035Z,98417.88
2019-03-01T01:24:23.420Z,98418.98
2019-03-01T01:26:51.831Z,98420.70
2019-03-01T01:29:20.213Z,98426.16
2019-03-01T01:31:48.632Z,98418.16
2019-03-01T01:34:17.036Z,98421.77
2019-03-01T01:36:45.457Z,98432.45
2019-03-01T01:39:13.845Z,98425.42
2019-03-01T01:41:42.346Z,98426.41
2019-03-01T01:44:10.739Z,98428.33
2019-03-01T01:46:39.125Z,98420.33
2019-03-01T01:49:07.512Z,98415.97
2019-03-01T01:51:35.951Z,98415.14
2019-03-01T01:54:04.513Z,98419.74
2019-03-01T01:56:32.993Z,98419.74
2019-03-01T01:59:01.414Z,98425.08
2019-03-01T02:01:29.803Z,98422.53
2019-03-01T02:03:58.184Z,98413.81
2019-03-01T02:06:26.741Z,98423.63
2019-03-01T02:08:55.134Z,98419.16
2019-03-01T02:11:23.596Z,98423.75
2019-03-01T02:13:51.984Z,98431.76
2019-03-01T02:16:20.374Z,98417.59
2019-03-01T02:18:57.256Z,98417.70
2019-03-01T02:21:18.982Z,98421.20
2019-03-01T02:23:47.378Z,98423.05
2019-03-01T02:26:15.772Z,98424.97
2019-03-01T02:28:44.161Z,98416.97
2019-03-01T02:31:12.884Z,98417.95
2019-03-01T02:33:41.280Z,98420.62
2019-03-01T02:36:09.667Z,98424.27
2019-03-01T02:38:38.073Z,98419.75
2019-03-01T02:41:06.465Z,98410.06
2019-03-01T02:43:34.855Z,98418.19
2019-03-01T02:46:03.244Z,98421.72
2019-03-01T02:48:31.718Z,98420.03
2019-03-01T02:51:00.210Z,98417.36
2019-03-01T02:53:28.607Z,98414.81
2019-03-01T02:55:56.999Z,98416.73
2019-03-01T02:58:25.393Z,98417.59
2019-03-01T03:00:53.784Z,98422.94
2019-03-01T03:03:22.173Z,98422.08
2019-03-01T03:05:55.195Z,98422.08
2019-03-01T03:08:23.614Z,98429.25
2019-03-01T03:10:52.026Z,98422.20
2019-03-01T03:13:20.415Z,98421.37
2019-03-01T03:15:50.687Z,98427.66
2019-03-01T03:18:19.110Z,98425.96
2019-03-01T03:20:47.613Z,98426.82
2019-03-01T03:23:16.026Z,98425.14
2019-03-01T03:25:44.415Z,98427.92
2019-03-01T03:28:12.854Z,98420.86
2019-03-01T03:30:41.242Z,98424.39
2019-03-01T03:33:09.696Z,98424.52
2019-03-01T03:35:38.087Z,98419.17
2019-03-01T03:38:06.513Z,98429.02
2019-03-01T03:40:34.900Z,98431.69
2019-03-01T03:43:03.333Z,98436.28
2019-03-01T03:45:31.720Z,98430.09
2019-03-01T03:48:00.223Z,98430.20
2019-03-01T03:50:28.607Z,98433.73
2019-03-01T03:52:57.046Z,98437.38
2019-03-01T03:55:25.467Z,98436.64
2019-03-01T03:57:53.854Z,98438.48
2019-03-01T04:00:25.691Z,98437.62
2019-03-01T04:02:54.279Z,98436.75
2019-03-01T04:05:22.636Z,98434.23
2019-03-01T04:07:51.023Z,98438.59
2019-03-01T04:10:19.414Z,98433.38
2019-03-01T04:12:47.813Z,98435.19
2019-03-01T04:15:18.885Z,98427.19
2019-03-01T04:17:47.269Z,98423.77
2019-03-01T04:20:19.035Z,98429.11
2019-03-01T04:22:47.421Z,98425.58
2019-03-01T04:25:15.814Z,98423.89
2019-03-01T04:27:44.214Z,98422.08
2019-03-01T04:30:14.731Z,98424.88
2019-03-01T04:32:43.152Z,98436.37
2019-03-01T04:35:11.670Z,98442.68
2019-03-01T04:37:40.149Z,98440.99
2019-03-01T04:40:13.699Z,98442.80
2019-03-01T04:42:42.132Z,98445.58
2019-03-01T04:45:15.593Z,98436.63
2019-03-01T04:47:44.147Z,98437.70
2019-03-01T04:50:12.805Z,98439.42
2019-03-01T04:52:41.739Z,98435.89
2019-03-01T04:55:18.525Z,98439.66
2019-03-01T04:57:46.917Z,98442.20
2019-03-01T05:00:17.251Z,98441.45
2019-03-01T05:02:45.637Z,98449.46
2019-03-01T05:05:14.373Z,98445.10
2019-03-01T05:07:42.757Z,98452.25
2019-03-01T05:10:13.084Z,98449.73
2019-03-01T05:12:41.485Z,98458.67
2019-03-01T05:15:18.451Z,98459.65
2019-03-01T05:17:46.845Z,98451.66
2019-03-01T05:20:15.240Z,98465.96
2019-03-01T05:22:43.630Z,98465.96
2019-03-01T05:25:12.189Z,98461.61
2019-03-01T05:27:40.564Z,98467.05
2019-03-01T05:30:11.596Z,98464.39
2019-03-01T05:32:40.011Z,98460.86
2019-03-01T05:35:08.663Z,98460.00
2019-03-01T05:37:37.093Z,98453.84
2019-03-01T05:40:08.662Z,98455.52
2019-03-01T05:42:37.058Z,98453.84
2019-03-01T05:45:08.844Z,98456.63
2019-03-01T05:47:37.233Z,98463.76
2019-03-01T05:50:08.890Z,98465.48
2019-03-01T05:52:37.287Z,98461.09
2019-03-01T05:55:08.153Z,98466.42
2019-03-01T05:57:36.544Z,98471.76
2019-03-01T06:00:09.929Z,98470.93
2019-03-01T06:02:47.115Z,98479.05
2019-03-01T06:05:15.705Z,98475.41
2019-03-01T06:07:59.271Z,98472.97
2019-03-01T06:13:22.817Z,98479.27
2019-03-01T06:16:00.470Z,98479.27
2019-03-01T06:18:48.555Z,98483.63
2019-03-01T06:21:55.260Z,98472.02
2019-03-01T06:24:51.245Z,98487.88
2019-03-01T06:27:39.158Z,98495.05
2019-03-01T06:30:25.815Z,98491.41
2019-03-01T06:33:12.496Z,98495.88
2019-03-01T06:36:02.231Z,98496.73
2019-03-01T06:38:53.132Z,98509.09
2019-03-01T06:41:35.119Z,98503.76
2019-03-01T06:44:06.854Z,98512.51
2019-03-01T06:46:55.328Z,98515.17
2019-03-01T06:49:25.356Z,98512.51
2019-03-01T06:51:53.749Z,98505.22
2019-03-01T06:54:22.149Z,98505.97
2019-03-01T06:56:50.553Z,98501.61
2019-03-01T06:59:18.979Z,98509.46
2019-03-01T07:01:48.126Z,98496.02
2019-03-01T07:04:17.097Z,98503.07
2019-03-01T07:06:45.491Z,98494.92
2019-03-01T07:09:13.929Z,98505.48
2019-03-01T07:11:42.322Z,98511.55
2019-03-01T07:14:10.756Z,98512.38
2019-03-01T07:16:39.146Z,98511.32
2019-03-01T07:19:07.594Z,98512.16
2019-03-01T07:21:36.039Z,98514.70
2019-03-01T07:24:04.574Z,98511.92
2019-03-01T07:26:33.021Z,98514.47
2019-03-01T07:29:01.423Z,98509.97
2019-03-01T07:31:29.806Z,98515.22
2019-03-01T07:33:58.198Z,98510.62
2019-03-01T07:36:26.579Z,98515.84
2019-03-01T07:38:54.974Z,98509.41
2019-03-01T07:41:23.604Z,98506.52
2019-03-01T07:43:51.995Z,98513.55
2019-03-01T07:46:20.447Z,98513.42
2019-03-01T07:48:48.901Z,98499.97
2019-03-01T07:51:17.300Z,98506.02
2019-03-01T07:53:45.680Z,98498.75
2019-03-01T07:56:14.157Z,98500.33
2019-03-01T07:58:42.550Z,98508.21
2019-03-01T08:01:10.935Z,98504.45
2019-03-01T08:03:39.334Z,98509.55
2019-03-01T08:06:13.098Z,98504.21
2019-03-01T08:08:38.787Z,98507.59
2019-03-01T08:11:08.039Z,98506.61
2019-03-01T08:13:36.423Z,98505.90
2019-03-01T08:16:04.806Z,98504.80
2019-03-01T08:18:33.201Z,98506.38
2019-03-01T08:21:01.597Z,98506.26
2019-03-01T08:23:31.712Z,98507.95
2019-03-01T08:26:00.128Z,98506.84
2019-03-01T08:28:28.603Z,98495.70
2019-03-01T08:30:56.983Z,98502.25
2019-03-01T08:33:25.397Z,98504.80
2019-03-01T08:35:53.785Z,98498.24
2019-03-01T08:38:25.370Z,98496.16
2019-03-01T08:40:54.449Z,98503.08
2019-03-01T08:43:22.498Z,98500.04
2019-03-01T08:45:50.885Z,98494.58
2019-03-01T08:48:19.295Z,98490.56
2019-03-01T08:50:47.678Z,98490.30
2019-03-01T08:53:16.201Z,98488.95
2019-03-01T08:55:44.595Z,98485.05
2019-03-01T08:58:13.003Z,98486.28
2019-03-01T09:00:43.823Z,98489.05
2019-03-01T09:03:35.048Z,98477.71
2019-03-01T09:06:03.436Z,98481.70
2019-03-01T09:08:31.864Z,98478.41
2019-03-01T09:11:00.254Z,98479.56
2019-03-01T09:13:28.676Z,98485.84
2019-03-01T09:15:57.065Z,98472.67
2019-03-01T09:18:25.538Z,98476.53
2019-03-01T09:20:53.921Z,98478.70
2019-03-01T09:23:26.417Z,98477.20
2019-03-01T09:25:52.466Z,98467.80
2019-03-01T09:28:20.885Z,98480.25
2019-03-01T09:30:49.273Z,98472.41
2019-03-01T09:33:21.573Z,98474.39
2019-03-01T09:35:52.141Z,98463.61
2019-03-01T09:38:20.573Z,98457.59
2019-03-01T09:40:48.956Z,98455.09
2019-03-01T09:43:17.392Z,98458.79
2019-03-01T09:45:48.814Z,98456.27
2019-03-01T09:48:15.906Z,98458.28
2019-03-01T09:50:44.298Z,98450.41
2019-03-01T09:53:12.703Z,98447.02
2019-03-01T09:55:41.076Z,98439.99
2019-03-01T09:58:09.468Z,98440.14
2019-03-01T10:00:56.042Z,98441.11
2019-03-01T10:03:17.123Z,98427.02
2019-03-01T10:05:45.509Z,98434.23
2019-03-01T10:08:14.238Z,98435.23
2019-03-01T10:10:42.634Z,98422.09
2019-03-01T10:13:11.021Z,98415.14
2019-03-01T10:15:39.414Z,98416.12
2019-03-01T10:18:07.805Z,98412.88
2019-03-01T10:20:36.268Z,98410.17
2019-03-01T10:23:04.652Z,98412.97
2019-03-01T10:25:33.040Z,98408.70
2019-03-01T10:28:01.429Z,98401.63
2019-03-01T10:30:29.882Z,98402.59
2019-03-01T10:32:58.294Z,98402.69
2019-03-01T10:35:26.670Z,98394.73
2019-03-01T10:37:55.133Z,98397.37
2019-03-01T10:40:24.671Z,98396.45
2019-03-01T10:42:53.048Z,98394.69
2019-03-01T10:45:24.723Z,98386.45
2019-03-01T10:47:53.109Z,98394.59
2019-03-01T10:50:21.496Z,98391.98
2019-03-01T10:52:49.892Z,98382.31
2019-03-01T10:55:19.201Z,98385.93
2019-03-01T10:57:47.656Z,98384.14
2019-03-01T11:00:26.737Z,98386.89
2019-03-01T11:02:56.064Z,98378.89
2019-03-01T11:05:25.238Z,98374.98
2019-03-01T11:07:57.202Z,98374.73
2019-03-01T11:10:28.856Z,98374.00
2019-03-01T11:12:57.243Z,98367.85
2019-03-01T11:15:25.649Z,98368.47
2019-03-01T11:17:54.125Z,98363.84
2019-03-01T11:20:22.892Z,98361.70
2019-03-01T11:22:51.320Z,98359.77
2019-03-01T11:25:21.965Z,98368.38
2019-03-01T11:27:50.351Z,98367.03
2019-03-01T11:30:27.467Z,98362.48
2019-03-01T11:32:55.862Z,98353.73
2019-03-01T11:35:24.286Z,98362.32
2019-03-01T11:37:52.685Z,98362.63
2019-03-01T11:40:23.884Z,98356.02
2019-03-01T11:42:52.269Z,98360.05
2019-03-01T11:45:20.710Z,98352.61
2019-03-01T11:47:49.127Z,98352.03
2019-03-01T11:50:22.666Z,98352.54
2019-03-01T11:52:51.126Z,98344.12
2019-03-01T11:55:19.614Z,98347.34
2019-03-01T11:57:48.247Z,98346.15
2019-03-01T12:00:26.585Z,98339.04
2019-03-01T12:02:54.967Z,98336.81
2019-03-01T12:05:23.374Z,98338.82
2019-03-01T12:07:51.767Z,98336.94
2019-03-01T12:10:28.604Z,98331.23
2019-03-01T12:12:58.621Z,98337.16
2019-03-01T12:15:27.088Z,98327.21
2019-03-01T12:17:55.483Z,98329.02
2019-03-01T12:20:30.010Z,98333.85
2019-03-01T12:22:58.398Z,98328.09
2019-03-01T12:25:26.794Z,98328.08
2019-03-01T12:27:55.227Z,98316.36
2019-03-01T12:30:25.194Z,98317.22
2019-03-01T12:32:53.639Z,98312.16
2019-03-01T12:35:22.033Z,98308.20
2019-03-01T12:37:50.413Z,98302.84
2019-03-01T12:40:30.041Z,98301.10
2019-03-01T12:42:58.434Z,98303.45
2019-03-01T12:45:26.825Z,98294.98
2019-03-01T12:47:55.231Z,98293.95
2019-03-01T12:50:23.699Z,98296.83
2019-03-01T12:52:52.095Z,98296.30
2019-03-01T12:55:25.859Z,98301.21
2019-03-01T12:57:54.301Z,98299.36
2019-03-01T13:00:25.209Z,98301.88
2019-03-01T13:02:53.590Z,98304.48
2019-03-01T13:05:22.019Z,98295.83
2019-03-01T13:07:50.406Z,98294.80
2019-03-01T13:10:22.103Z,98291.03
2019-03-01T13:12:50.487Z,98296.17
2019-03-01T13:15:18.893Z,98300.63
2019-03-01T13:17:47.290Z,98299.31
2019-03-01T13:20:18.345Z,98300.67
2019-03-01T13:22:46.780Z,98299.51
2019-03-01T13:25:15.790Z,98296.67
2019-03-01T13:27:44.198Z,98292.13
2019-03-01T13:30:17.702Z,98283.01
2019-03-01T13:32:46.100Z,98282.19
2019-03-01T13:35:16.461Z,98290.51
2019-03-01T13:37:44.852Z,98283.97
2019-03-01T13:40:15.328Z,98286.83
2019-03-01T13:42:43.711Z,98277.91
2019-03-01T13:45:17.287Z,98280.62
2019-03-01T13:47:45.663Z,98281.64
2019-03-01T13:50:16.234Z,98282.41
2019-03-01T13:52:44.631Z,98283.58
2019-03-01T13:55:14.899Z,98273.12
2019-03-01T13:57:46.008Z,98285.91
2019-03-01T14:00:21.914Z,98268.38
2019-03-01T14:02:50.443Z,98264.93
2019-03-01T14:05:19.006Z,98271.30
2019-03-01T14:07:48.331Z,98273.95
2019-03-01T14:10:19.588Z,98267.88
2019-03-01T14:12:47.986Z,98263.59
2019-03-01T14:15:17.642Z,98266.44
2019-03-01T14:17:46.021Z,98261.17
2019-03-01T14:20:20.361Z,98269.31
2019-03-01T14:22:49.419Z,98274.64
2019-03-01T14:25:18.364Z,98266.52
2019-03-01T14:27:46.799Z,98265.45
2019-03-01T14:30:31.166Z,98264.39
2019-03-01T14:32:57.491Z,98263.32
2019-03-01T14:35:27.178Z,98267.66
2019-03-01T14:37:55.976Z,98269.11
2019-03-01T14:40:24.418Z,98267.03
2019-03-01T14:42:52.799Z,98262.41
2019-03-01T14:45:32.526Z,98266.70
2019-03-01T14:48:00.912Z,98262.94
2019-03-01T14:50:33.623Z,98265.73
2019-03-01T14:53:00.648Z,98268.16
2019-03-01T14:55:38.112Z,98259.05
2019-03-01T14:58:15.695Z,98268.69
2019-03-01T15:00:56.139Z,98262.38
2019-03-01T15:03:32.952Z,98258.57
2019-03-01T15:06:01.325Z,98264.70
2019-03-01T15:08:30.075Z,98274.19
2019-03-01T15:11:04.396Z,98279.16
2019-03-01T15:13:34.783Z,98274.55
2019-03-01T15:16:04.691Z,98271.45
2019-03-01T15:18:33.654Z,98270.20
2019-03-01T15:21:02.837Z,98270.66
2019-03-01T15:23:31.446Z,98275.59
2019-03-01T15:25:59.893Z,98272.52
2019-03-01T15:28:28.294Z,98274.80
2019-03-01T15:30:57.345Z,98273.41
2019-03-01T15:33:25.907Z,98276.66
2019-03-01T15:35:54.386Z,98274.40
2019-03-01T15:38:23.921Z,98275.82
2019-03-01T15:40:52.920Z,98280.63
2019-03-01T15:43:21.360Z,98281.06
2019-03-01T15:45:49.748Z,98287.69
2019-03-01T15:48:18.131Z,98289.97
2019-03-01T15:50:46.523Z,98291.24
2019-03-01T15:53:14.916Z,98275.59
2019-03-01T15:55:44.954Z,98280.39
2019-03-01T15:58:13.357Z,98286.03
2019-03-01T16:00:41.746Z,98282.95
2019-03-01T16:03:10.140Z,98291.39
2019-03-01T16:05:38.533Z,98295.20
2019-03-01T16:08:08.365Z,98296.47
2019-03-01T16:10:37.039Z,98300.42
2019-03-01T16:13:08.314Z,98299.00
2019-03-01T16:15:38.720Z,98301.95
2019-03-01T16:18:05.692Z,98304.88
2019-03-01T16:20:34.128Z,98306.86
2019-03-01T16:23:02.519Z,98304.59
2019-03-01T16:25:30.903Z,98306.58
2019-03-01T16:27:59.296Z,98319.38
2019-03-01T16:30:27.682Z,98317.83
2019-03-01T16:32:56.083Z,98322.63
2019-03-01T16:35:24.469Z,98323.75
2019-03-01T16:37:57.878Z,98328.38
2019-03-01T16:40:27.594Z,98322.47
2019-03-01T16:42:55.994Z,98326.10
2019-03-01T16:45:24.541Z,98337.10
2019-03-01T16:47:52.929Z,98341.73
2019-03-01T16:50:21.491Z,98350.02
2019-03-01T16:52:49.889Z,98357.22
2019-03-01T16:55:24.353Z,98366.38
2019-03-01T16:58:05.986Z,98370.17
2019-03-01T17:00:24.478Z,98379.28
2019-03-01T17:03:17.104Z,98377.73
2019-03-01T17:05:43.722Z,98380.53
2019-03-01T17:08:12.118Z,98382.52
2019-03-01T17:10:40.510Z,98382.78
2019-03-01T17:13:08.900Z,98391.79
2019-03-01T17:15:37.304Z,98390.23
2019-03-01T17:18:11.276Z,98396.70
2019-03-01T17:20:38.402Z,98404.98
2019-03-01T17:23:06.050Z,98404.98
2019-03-01T17:25:34.458Z,98413.01
2019-03-01T17:28:02.892Z,98421.29
2019-03-01T17:30:31.291Z,98414.25
2019-03-01T17:32:59.747Z,98421.55
2019-03-01T17:35:28.125Z,98425.21
2019-03-01T17:37:56.558Z,98427.16
2019-03-01T17:40:24.974Z,98430.78
2019-03-01T17:42:56.582Z,98432.76
2019-03-01T17:45:25.726Z,98437.38
2019-03-01T17:47:55.398Z,98449.92
2019-03-01T17:50:23.945Z,98451.03
2019-03-01T17:52:52.432Z,98449.31
2019-03-01T17:55:25.467Z,98456.50
2019-03-01T17:57:54.021Z,98461.98
2019-03-01T18:00:34.033Z,98454.95
2019-03-01T18:03:02.424Z,98467.58
2019-03-01T18:05:30.827Z,98468.56
2019-03-01T18:07:59.845Z,98464.20
2019-03-01T18:10:32.095Z,98458.50
2019-03-01T18:12:59.493Z,98463.59
2019-03-01T18:15:27.885Z,98456.74
2019-03-01T18:17:57.210Z,98482.44
2019-03-01T18:20:25.608Z,98487.91
2019-03-01T18:22:54.206Z,98490.73
2019-03-01T18:25:25.877Z,98493.41
2019-03-01T18:27:53.807Z,98490.86
2019-03-01T18:30:23.935Z,98490.98
2019-03-01T18:32:52.516Z,98506.16
2019-03-01T18:35:20.921Z,98506.29
2019-03-01T18:37:51.434Z,98509.09
2019-03-01T18:40:21.092Z,98515.30
2019-03-01T18:42:49.491Z,98514.59
2019-03-01T18:45:22.734Z,98513.85
2019-03-01T18:47:51.169Z,98511.18
2019-03-01T18:50:31.347Z,98513.85
2019-03-01T18:53:00.171Z,98513.27
2019-03-01T18:55:28.563Z,98518.62
2019-03-01T18:57:56.996Z,98525.90
2019-03-01T19:00:32.418Z,98529.55
2019-03-01T19:03:04.379Z,98535.77
2019-03-01T19:05:32.016Z,98548.14
2019-03-01T19:08:00.862Z,98543.78
2019-03-01T19:10:30.668Z,98552.75
2019-03-01T19:12:59.112Z,98563.56
2019-03-01T19:15:27.497Z,98566.38
2019-03-01T19:17:55.995Z,98576.33
2019-03-01T19:20:29.414Z,98581.80
2019-03-01T19:22:58.683Z,98581.92
2019-03-01T19:25:27.173Z,98576.70
2019-03-01T19:27:55.622Z,98581.09
2019-03-01T19:30:25.486Z,98591.91
2019-03-01T19:32:53.898Z,98590.21
2019-03-01T19:35:28.262Z,98594.69
2019-03-01T19:37:53.579Z,98596.50
2019-03-01T19:40:22.925Z,98602.83
2019-03-01T19:42:53.028Z,98603.81
2019-03-01T19:45:21.431Z,98613.76
2019-03-01T19:47:49.858Z,98621.77
2019-03-01T19:50:25.009Z,98622.75
2019-03-01T19:52:53.799Z,98619.38
2019-03-01T19:55:22.186Z,98624.72
2019-03-01T19:57:50.622Z,98624.95
2019-03-01T20:00:27.152Z,98628.61
2019-03-01T20:02:55.588Z,98633.09
2019-03-01T20:05:31.715Z,98635.88
2019-03-01T20:07:59.263Z,98638.67
2019-03-01T20:10:27.709Z,98641.45
2019-03-01T20:12:56.065Z,98650.45
2019-03-01T20:15:25.972Z,98650.57
2019-03-01T20:17:54.937Z,98650.66
2019-03-01T20:20:25.736Z,98664.98
2019-03-01T20:22:55.241Z,98664.98
2019-03-01T20:25:23.747Z,98668.64
2019-03-01T20:27:52.180Z,98667.90
2019-03-01T20:30:30.117Z,98674.22
2019-03-01T20:32:55.618Z,98689.50
2019-03-01T20:35:25.838Z,98689.50
2019-03-01T20:37:54.234Z,98686.83
2019-03-01T20:40:26.138Z,98704.81
2019-03-01T20:42:55.860Z,98696.91
2019-03-01T20:45:29.937Z,98705.04
2019-03-01T20:47:58.836Z,98711.36
2019-03-01T20:50:27.306Z,98720.35
2019-03-01T20:52:55.874Z,98721.30
2019-03-01T20:55:24.270Z,98728.47
2019-03-01T20:57:52.674Z,98730.40
2019-03-01T21:00:26.157Z,98727.02
2019-03-01T21:02:56.657Z,98734.16
2019-03-01T21:05:28.737Z,98734.27
2019-03-01T21:07:55.183Z,98737.92
2019-03-01T21:10:27.951Z,98732.70
2019-03-01T21:12:56.451Z,98742.55
2019-03-01T21:15:25.000Z,98745.33
2019-03-01T21:17:56.934Z,98741.80
2019-03-01T21:20:23.516Z,98754.28
2019-03-01T21:22:54.327Z,98750.90
2019-03-01T21:25:23.965Z,98766.05
2019-03-01T21:27:52.445Z,98775.80
2019-03-01T21:30:34.650Z,98774.93
2019-03-01T21:33:03.051Z,98782.94
2019-03-01T21:35:31.448Z,98783.91
2019-03-01T21:37:59.854Z,98787.53
2019-03-01T21:40:31.464Z,98790.20
2019-03-01T21:43:00.180Z,98788.50
2019-03-01T21:45:28.513Z,98794.81
2019-03-01T21:47:56.969Z,98795.80
2019-03-01T21:50:25.381Z,98799.41
2019-03-01T21:52:53.783Z,98792.38
2019-03-01T21:55:28.558Z,98794.32
2019-03-01T21:57:56.727Z,98796.23
2019-03-01T22:00:31.391Z,98806.92
2019-03-01T22:02:59.608Z,98810.56
2019-03-01T22:05:28.079Z,98807.14
2019-03-01T22:07:56.508Z,98814.31
2019-03-01T22:10:24.917Z,98810.06
2019-03-01T22:12:53.327Z,98811.01
2019-03-01T22:15:29.399Z,98823.62
2019-03-01T22:17:57.795Z,98827.27
2019-03-01T22:20:26.245Z,98833.55
2019-03-01T22:22:54.635Z,98829.19
2019-03-01T22:25:23.104Z,98825.80
2019-03-01T22:27:51.507Z,98824.08
2019-03-01T22:30:28.770Z,98827.72
2019-03-01T22:32:57.162Z,98829.66
2019-03-01T22:35:25.572Z,98825.27
2019-03-01T22:37:54.042Z,98823.57
2019-03-01T22:40:24.006Z,98817.51
2019-03-01T22:42:52.566Z,98824.66
2019-03-01T22:45:20.967Z,98823.06
2019-03-01T22:47:49.372Z,98828.63
2019-03-01T22:50:19.991Z,98829.48
2019-03-01T22:52:48.538Z,98828.84
2019-03-01T22:55:17.774Z,98821.81
2019-03-01T22:57:46.173Z,98839.62
2019-03-01T23:00:28.052Z,98834.28
2019-03-01T23:02:56.451Z,98840.70
2019-03-01T23:05:24.857Z,98838.97
2019-03-01T23:07:53.258Z,98845.28
2019-03-01T23:10:22.402Z,98843.59
2019-03-01T23:12:50.903Z,98844.63
2019-03-01T23:15:19.389Z,98843.80
2019-03-01T23:17:47.807Z,98849.24
2019-03-01T23:20:16.219Z,98856.38
2019-03-01T23:22:46.039Z,98860.02
2019-03-01T23:25:14.697Z,98852.99
2019-03-01T23:27:43.100Z,98859.30
2019-03-01T23:30:11.534Z,98860.23
2019-03-01T23:32:39.925Z,98863.88
2019-03-01T23:35:08.397Z,98862.18
2019-03-01T23:37:38.814Z,98870.18
2019-03-01T23:40:07.476Z,98871.15
2019-03-01T23:42:35.952Z,98867.73
2019-03-01T23:45:13.813Z,98874.03
2019-03-01T23:47:41.431Z,98874.14
2019-03-01T23:50:10.331Z,98883.94
2019-03-01T23:52:38.805Z,98884.91
2019-03-01T23:55:07.872Z,98881.73
2019-03-01T23:57:38.089Z,98888.55
